createdAt,value
2023-03-25T00:04:56.136Z,146017.94
2023-03-25T00:10:00.358Z,146021.63
2023-03-25T00:15:03.019Z,146026.59
2023-03-25T00:20:11.098Z,146024.13
2023-03-25T00:25:19.080Z,146026.59
2023-03-25T00:30:22.029Z,146030.34
2023-03-25T00:35:26.108Z,146029.09
2023-03-25T00:40:34.760Z,146015.47
2023-03-25T00:45:37.440Z,146014.22
2023-03-25T00:50:41.953Z,145998.19
2023-03-25T00:55:46.023Z,145995.72
2023-03-25T01:00:49.640Z,145987.06
2023-03-25T01:05:54.680Z,145962.28
2023-03-25T01:10:59.258Z,145937.56
2023-03-25T01:16:01.895Z,145930.16
2023-03-25T01:21:04.968Z,145912.81
2023-03-25T01:26:09.175Z,145925.22
2023-03-25T01:31:15.069Z,145943.75
2023-03-25T01:36:17.768Z,145952.41
2023-03-25T01:41:21.656Z,145962.28
2023-03-25T01:46:24.280Z,145974.66
2023-03-25T01:51:30.385Z,145978.38
2023-03-25T01:56:37.298Z,145988.28
2023-03-25T02:01:40.009Z,145989.53
2023-03-25T02:06:45.173Z,145985.81
2023-03-25T02:11:49.262Z,145993.25
2023-03-25T02:17:04.867Z,145989.53
2023-03-25T02:22:58.744Z,145984.59
2023-03-25T02:28:11.688Z,145989.53
2023-03-25T02:33:48.314Z,145994.47
2023-03-25T02:38:54.878Z,145985.81
2023-03-25T02:44:03.359Z,145974.66
2023-03-25T02:49:12.740Z,145968.44
2023-03-25T02:54:18.079Z,145954.84
2023-03-25T02:59:22.154Z,145958.56
2023-03-25T03:04:25.119Z,145944.97
2023-03-25T03:09:40.828Z,145942.50
2023-03-25T03:14:57.525Z,145914.13
2023-03-25T03:20:05.211Z,145841.19
2023-03-25T03:25:19.371Z,145764.59
2023-03-25T03:30:29.915Z,145722.59
2023-03-25T03:35:38.445Z,145697.94
2023-03-25T03:40:46.219Z,145684.34
2023-03-25T03:45:52.827Z,145681.84
2023-03-25T03:51:00.669Z,145689.28
2023-03-25T03:56:09.151Z,145700.41
2023-03-25T04:01:14.958Z,145696.69
2023-03-25T04:06:24.539Z,145693.00
2023-03-25T04:11:34.193Z,145689.28
2023-03-25T04:16:37.599Z,145685.59
2023-03-25T04:21:41.570Z,145680.59
2023-03-25T04:26:45.471Z,145675.66
2023-03-25T04:31:49.716Z,145678.16
2023-03-25T04:36:52.610Z,145668.28
2023-03-25T04:41:57.283Z,145652.22
2023-03-25T04:47:00.967Z,145642.38
2023-03-25T04:52:04.370Z,145636.19
2023-03-25T04:57:09.678Z,145636.19
2023-03-25T05:02:13.594Z,145674.44
2023-03-25T05:07:18.801Z,145688.06
2023-03-25T05:12:22.755Z,145709.03
2023-03-25T05:17:26.284Z,145720.13
2023-03-25T05:22:28.811Z,145742.41
2023-03-25T05:27:34.012Z,145747.34
2023-03-25T05:32:36.989Z,145718.91
2023-03-25T05:37:39.594Z,145702.88
2023-03-25T05:42:47.111Z,145694.22
2023-03-25T05:47:49.843Z,145705.34
2023-03-25T05:52:53.706Z,145728.78
2023-03-25T05:57:58.822Z,145731.25
2023-03-25T06:03:02.359Z,145747.34
2023-03-25T06:08:05.125Z,145739.88
2023-03-25T06:13:09.071Z,145710.25
2023-03-25T06:18:11.677Z,145664.56
2023-03-25T06:23:14.250Z,145628.78
2023-03-25T06:28:19.378Z,145586.81
2023-03-25T06:33:43.122Z,145586.81
2023-03-25T06:38:44.704Z,145611.47
2023-03-25T06:43:49.640Z,145591.75
2023-03-25T06:48:52.249Z,145559.63
2023-03-25T06:53:54.873Z,145560.88
2023-03-25T06:58:58.787Z,145596.69
2023-03-25T07:04:01.415Z,145604.06
2023-03-25T07:09:04.282Z,145690.53
2023-03-25T07:14:08.280Z,145932.63
2023-03-25T07:19:10.896Z,145841.19
2023-03-25T07:24:13.483Z,145915.34
2023-03-25T07:29:17.445Z,145940.03
2023-03-25T07:34:20.060Z,145953.63
2023-03-25T07:39:25.197Z,145961.03
2023-03-25T07:44:29.194Z,145912.81
2023-03-25T07:49:31.933Z,145831.31
2023-03-25T07:54:34.586Z,145758.44
2023-03-25T07:59:38.541Z,145768.31
2023-03-25T08:04:41.354Z,145814.03
2023-03-25T08:09:43.977Z,145857.28
2023-03-25T08:14:47.973Z,145848.59
2023-03-25T08:19:50.797Z,145809.09
2023-03-25T08:24:53.371Z,145796.69
2023-03-25T08:29:59.254Z,145817.72
2023-03-25T08:35:05.205Z,145885.66
2023-03-25T08:40:09.763Z,145949.91
2023-03-25T08:45:15.282Z,146041.44
2023-03-25T08:50:19.024Z,146228.16
2023-03-25T08:55:23.367Z,146287.53
2023-03-25T09:00:27.385Z,146157.69
2023-03-25T09:05:29.965Z,146109.44
2023-03-25T09:10:32.687Z,146152.72
2023-03-25T09:15:37.038Z,146141.56
2023-03-25T09:20:39.781Z,146208.38
2023-03-25T09:25:42.968Z,146423.63
2023-03-25T09:30:46.952Z,146226.94
2023-03-25T09:35:49.949Z,146170.03
2023-03-25T09:40:52.842Z,146328.38
2023-03-25T09:45:57.714Z,146236.81
2023-03-25T09:51:03.912Z,146147.78
2023-03-25T09:56:15.102Z,146301.13
2023-03-25T10:01:34.767Z,146350.63
2023-03-25T10:06:45.666Z,146776.63
2023-03-25T10:11:55.258Z,147152.34
2023-03-25T10:17:09.391Z,147417.97
2023-03-25T10:22:18.225Z,147390.63
2023-03-25T10:27:24.193Z,147152.34
2023-03-25T10:32:35.823Z,147096.53
2023-03-25T10:37:42.773Z,147401.78
2023-03-25T10:42:57.105Z,147567.00
2023-03-25T10:48:08.517Z,147719.81
2023-03-25T10:53:22.001Z,147645.28
2023-03-25T10:58:25.427Z,147475.13
2023-03-25T11:03:34.445Z,147750.84
2023-03-25T11:08:37.212Z,147830.47
2023-03-25T11:13:41.281Z,147610.47
2023-03-25T11:18:45.686Z,147151.09
2023-03-25T11:23:50.527Z,146828.72
2023-03-25T11:28:56.079Z,146826.25
2023-03-25T11:34:10.872Z,146822.47
2023-03-25T11:39:19.277Z,146662.69
2023-03-25T11:44:24.950Z,146380.38
2023-03-25T11:49:35.391Z,146452.19
2023-03-25T11:54:38.858Z,146665.16
2023-03-25T11:59:45.993Z,146433.59
2023-03-25T12:05:02.951Z,146447.22
2023-03-25T12:10:07.983Z,146908.06
2023-03-25T12:15:33.392Z,146920.44
2023-03-25T12:20:49.987Z,146665.16
2023-03-25T12:25:59.645Z,146498.00
2023-03-25T12:31:11.314Z,146414.97
2023-03-25T12:36:30.682Z,146471.97
2023-03-25T12:41:40.926Z,146823.75
2023-03-25T12:47:02.153Z,146975.00
2023-03-25T12:52:21.818Z,146693.63
2023-03-25T12:57:36.828Z,146594.53
2023-03-25T13:03:12.540Z,146743.19
2023-03-25T13:08:20.397Z,146801.44
2023-03-25T13:13:25.820Z,147082.88
2023-03-25T13:18:33.029Z,147270.25
2023-03-25T13:23:40.118Z,147141.19
2023-03-25T13:28:46.855Z,147159.78
2023-03-25T13:33:54.883Z,146994.81
2023-03-25T13:39:02.656Z,146917.97
2023-03-25T13:44:08.862Z,146832.44
2023-03-25T13:49:17.843Z,146779.16
2023-03-25T13:54:27.745Z,147014.69
2023-03-25T14:00:05.843Z,147211.94
2023-03-25T14:05:39.428Z,147065.50
2023-03-25T14:10:54.646Z,146955.19
2023-03-25T14:16:02.792Z,147068.03
2023-03-25T14:21:15.985Z,146915.50
2023-03-25T14:26:20.328Z,146878.31
2023-03-25T14:31:31.754Z,147105.19
2023-03-25T14:37:09.652Z,147020.88
2023-03-25T14:42:28.787Z,146903.13
2023-03-25T14:47:35.389Z,147138.72
2023-03-25T14:52:41.544Z,147089.09
2023-03-25T14:57:46.804Z,146926.66
2023-03-25T15:02:53.601Z,146852.28
2023-03-25T15:08:00.348Z,146629.22
2023-03-25T15:13:07.423Z,146625.53
2023-03-25T15:18:10.617Z,146563.59
2023-03-25T15:23:33.267Z,146519.03
2023-03-25T15:29:02.519Z,146449.72
2023-03-25T15:34:25.366Z,146400.16
2023-03-25T15:39:42.654Z,146384.06
2023-03-25T15:45:01.862Z,146356.81
2023-03-25T15:50:34.125Z,146293.72
2023-03-25T15:55:40.342Z,146192.28
2023-03-25T16:00:48.533Z,145851.06
2023-03-25T16:05:55.693Z,145710.25
2023-03-25T16:10:58.301Z,145664.56
2023-03-25T16:16:02.606Z,145701.63
2023-03-25T16:21:05.686Z,145762.16
2023-03-25T16:26:08.378Z,145743.63
2023-03-25T16:31:34.490Z,145725.06
2023-03-25T16:36:37.473Z,145712.75
2023-03-25T16:41:44.415Z,145789.28
2023-03-25T16:46:48.968Z,145799.22
2023-03-25T16:51:52.506Z,145781.88
2023-03-25T16:56:56.924Z,145781.88
2023-03-25T17:02:02.425Z,145801.69
2023-03-25T17:07:12.475Z,145809.09
2023-03-25T17:12:19.254Z,145789.28
2023-03-25T17:17:35.934Z,145814.03
2023-03-25T17:22:40.646Z,145821.44
2023-03-25T17:27:43.703Z,145832.53
2023-03-25T17:32:49.051Z,145821.44
2023-03-25T17:37:51.999Z,145830.06
2023-03-25T17:42:55.347Z,145828.84
2023-03-25T17:47:59.343Z,145818.97
2023-03-25T17:53:01.974Z,145802.91
2023-03-25T17:58:04.957Z,145778.19
2023-03-25T18:03:13.441Z,145725.06
2023-03-25T18:08:16.560Z,145697.94
2023-03-25T18:13:21.599Z,145704.09
2023-03-25T18:18:27.446Z,145695.47
2023-03-25T18:23:31.412Z,145652.22
2023-03-25T18:28:35.901Z,145658.41
2023-03-25T18:33:39.870Z,145628.78
2023-03-25T18:38:43.378Z,145595.44
2023-03-25T18:43:46.094Z,145576.94
2023-03-25T18:48:50.016Z,145542.38
2023-03-25T18:53:52.571Z,145522.63
2023-03-25T18:58:55.129Z,145502.84
2023-03-25T19:04:02.507Z,145514.00
2023-03-25T19:09:05.693Z,145502.84
2023-03-25T19:14:08.330Z,145499.16
2023-03-25T19:19:13.425Z,145485.59
2023-03-25T19:24:16.088Z,145494.22
2023-03-25T19:29:18.714Z,145558.41
2023-03-25T19:34:23.071Z,145578.19
2023-03-25T19:39:25.868Z,145591.75
2023-03-25T19:44:29.484Z,145583.13
2023-03-25T19:49:39.920Z,145589.28
2023-03-25T19:54:42.991Z,145612.72
2023-03-25T19:59:45.621Z,145611.47
2023-03-25T20:04:49.531Z,145581.88
2023-03-25T20:09:53.292Z,145580.66
2023-03-25T20:14:55.870Z,145584.34
2023-03-25T20:20:00.041Z,145558.41
2023-03-25T20:25:03.365Z,145559.63
2023-03-25T20:30:08.228Z,145575.72
2023-03-25T20:35:14.042Z,145596.69
2023-03-25T20:40:19.063Z,145633.72
2023-03-25T20:45:22.403Z,145657.16
2023-03-25T20:50:27.165Z,145680.59
2023-03-25T20:55:29.739Z,145669.50
2023-03-25T21:00:32.436Z,145622.56
2023-03-25T21:05:40.557Z,145584.34
2023-03-25T21:10:47.573Z,145573.25
2023-03-25T21:15:54.331Z,145605.31
2023-03-25T21:21:03.190Z,145636.19
2023-03-25T21:26:09.265Z,145646.06
2023-03-25T21:31:16.911Z,145643.59
2023-03-25T21:36:22.545Z,145649.75
2023-03-25T21:41:27.044Z,145665.81
2023-03-25T21:46:29.655Z,145673.22
2023-03-25T21:51:36.067Z,145671.97
2023-03-25T21:56:42.118Z,145668.28
2023-03-25T22:01:45.496Z,145654.69
2023-03-25T22:06:52.157Z,145647.31
2023-03-25T22:11:55.636Z,145636.19
2023-03-25T22:16:58.415Z,145638.66
2023-03-25T22:22:02.992Z,145643.59
2023-03-25T22:27:05.570Z,145622.56
2023-03-25T22:32:08.154Z,145583.13
2023-03-25T22:37:12.095Z,145547.31
2023-03-25T22:42:14.690Z,145549.78
2023-03-25T22:47:17.314Z,145562.09
2023-03-25T22:52:21.327Z,145562.09
2023-03-25T22:57:23.921Z,145530.03
2023-03-25T23:02:26.731Z,145485.59
2023-03-25T23:07:30.728Z,145446.09
2023-03-25T23:12:33.294Z,145460.94
2023-03-25T23:17:36.346Z,145493.00
2023-03-25T23:22:41.515Z,145520.16
2023-03-25T23:27:46.079Z,145552.22
2023-03-25T23:32:48.759Z,145567.03
2023-03-25T23:37:53.462Z,145574.47
2023-03-25T23:42:56.051Z,145579.41
2023-03-25T23:48:06.440Z,145578.19
2023-03-25T23:53:10.376Z,145586.81
2023-03-25T23:58:15.411Z,145592.97
